Callao, Utah
Current Conditions -  °F | °C
As of 4:15 PM on Friday 28 Nov 2014 (Local Time) from KENV Reporting Station
Clear Clear  
Wind Chill: 54°   Ceiling: Unl
Heat Index: 54°   Visibility: 10mi
Dew Point: 21°   Wind: 12mph
Humidity: 28%   Direction: 60°ENE
Pressure: 29.82"   Gusts: NA
Location:  40.0375°N, 113.984°W
Report Text: KENV 282315Z AUTO 06010KT 10SM CLR 12/M06 A2982 RMK AO1
Loading
Personal Weather Stations






























Interactive Weather Map New forecast layout! Learn more

10-Day Weather Forecast

Advertisements
Track Severe Weather on mobile